createdAt,value
2022-07-27T00:01:31.345Z,26.70
2022-07-27T00:04:02.187Z,26.70
2022-07-27T00:06:30.105Z,26.70
2022-07-27T00:08:57.946Z,26.80
2022-07-27T00:11:25.648Z,26.80
2022-07-27T00:13:53.388Z,26.90
2022-07-27T00:16:22.114Z,27.00
2022-07-27T00:18:49.903Z,27.00
2022-07-27T00:21:17.875Z,27.10
2022-07-27T00:23:46.616Z,27.10
2022-07-27T00:26:14.428Z,27.20
2022-07-27T00:28:42.215Z,27.30
2022-07-27T00:31:11.650Z,27.40
2022-07-27T00:33:39.631Z,27.40
2022-07-27T00:36:07.466Z,27.50
2022-07-27T00:38:35.549Z,27.60
2022-07-27T00:41:06.295Z,27.70
2022-07-27T00:43:34.370Z,27.80
2022-07-27T00:46:05.271Z,27.80
2022-07-27T00:48:33.230Z,27.90
2022-07-27T00:51:03.227Z,28.40
2022-07-27T00:53:31.014Z,28.10
2022-07-27T00:55:59.774Z,28.20
2022-07-27T00:58:27.695Z,28.20
2022-07-27T01:00:56.425Z,28.30
2022-07-27T01:03:29.807Z,28.30
2022-07-27T01:06:01.083Z,28.30
2022-07-27T01:08:30.158Z,28.40
2022-07-27T01:10:58.539Z,28.40
2022-07-27T01:13:27.589Z,28.40
2022-07-27T01:15:55.884Z,28.50
2022-07-27T01:18:28.622Z,28.50
2022-07-27T01:20:57.762Z,28.60
2022-07-27T01:23:26.047Z,28.70
2022-07-27T01:25:54.596Z,28.70
2022-07-27T01:28:22.648Z,28.80
2022-07-27T01:30:51.217Z,28.90
2022-07-27T01:33:19.113Z,29.00
2022-07-27T01:35:47.804Z,29.10
2022-07-27T01:38:15.594Z,29.10
2022-07-27T01:40:44.047Z,29.60
2022-07-27T01:43:11.819Z,29.20
2022-07-27T01:45:40.411Z,29.30
2022-07-27T01:48:08.400Z,29.30
2022-07-27T01:50:36.225Z,29.40
2022-07-27T01:53:04.161Z,29.40
2022-07-27T01:55:38.386Z,29.50
2022-07-27T01:58:07.835Z,29.60
2022-07-27T02:00:37.189Z,29.60
2022-07-27T02:03:08.682Z,29.70
2022-07-27T02:05:38.243Z,29.70
2022-07-27T02:08:07.716Z,29.70
2022-07-27T02:10:36.754Z,29.80
2022-07-27T02:13:22.511Z,29.80
2022-07-27T02:15:54.588Z,29.90
2022-07-27T02:18:33.772Z,29.90
2022-07-27T02:21:07.259Z,30.00
2022-07-27T02:23:36.365Z,30.00
2022-07-27T02:26:06.558Z,30.00
2022-07-27T02:28:35.490Z,30.10
2022-07-27T02:31:03.681Z,30.10
2022-07-27T02:33:34.668Z,30.10
2022-07-27T02:36:06.733Z,30.20
2022-07-27T02:38:35.606Z,30.20
2022-07-27T02:41:03.462Z,30.20
2022-07-27T02:43:33.777Z,30.30
2022-07-27T02:46:03.451Z,30.30
2022-07-27T02:48:32.476Z,30.40
2022-07-27T02:51:01.654Z,30.50
2022-07-27T02:53:30.436Z,30.50
2022-07-27T02:55:59.306Z,30.60
2022-07-27T02:58:30.330Z,30.70
2022-07-27T03:00:58.737Z,30.70
2022-07-27T03:03:33.775Z,30.80
2022-07-27T03:06:07.360Z,30.90
2022-07-27T03:08:39.601Z,31.00
2022-07-27T03:11:09.179Z,31.00
2022-07-27T03:13:36.950Z,31.10
2022-07-27T03:16:04.710Z,31.10
2022-07-27T03:18:35.448Z,31.20
2022-07-27T03:21:03.299Z,31.20
2022-07-27T03:23:32.207Z,31.20
2022-07-27T03:26:00.360Z,31.20
2022-07-27T03:28:29.513Z,31.30
2022-07-27T03:30:57.385Z,31.30
2022-07-27T03:33:25.213Z,31.40
2022-07-27T03:35:53.001Z,31.50
2022-07-27T03:38:21.115Z,31.60
2022-07-27T03:40:50.940Z,31.60
2022-07-27T03:43:19.073Z,31.60
2022-07-27T03:45:47.064Z,31.70
2022-07-27T03:48:18.144Z,31.70
2022-07-27T03:50:45.890Z,31.80
2022-07-27T03:53:13.735Z,31.80
2022-07-27T03:55:41.753Z,31.80
2022-07-27T03:58:10.501Z,31.80
2022-07-27T04:00:41.681Z,31.80
2022-07-27T04:03:10.593Z,31.90
2022-07-27T04:05:44.642Z,31.90
2022-07-27T04:08:13.820Z,32.00
2022-07-27T04:10:44.892Z,32.00
2022-07-27T04:13:14.507Z,32.00
2022-07-27T04:15:43.760Z,32.10
2022-07-27T04:18:11.728Z,32.10
2022-07-27T04:20:41.715Z,32.20
2022-07-27T04:23:09.781Z,32.30
2022-07-27T04:25:37.847Z,32.30
2022-07-27T04:28:06.098Z,32.30
2022-07-27T04:30:34.329Z,32.40
2022-07-27T04:33:02.233Z,32.40
2022-07-27T04:38:14.975Z,32.50
2022-07-27T04:40:42.882Z,32.50
2022-07-27T04:43:11.175Z,32.50
2022-07-27T04:45:41.163Z,32.50
2022-07-27T04:48:11.883Z,32.60
2022-07-27T04:50:44.915Z,32.60
2022-07-27T04:53:13.331Z,32.60
2022-07-27T04:55:47.239Z,32.70
2022-07-27T04:58:16.066Z,32.70
2022-07-27T05:00:44.201Z,32.80
2022-07-27T05:03:12.299Z,32.80
2022-07-27T05:05:50.122Z,32.90
2022-07-27T05:08:18.911Z,32.90
2022-07-27T05:10:47.713Z,32.90
2022-07-27T05:13:16.627Z,33.00
2022-07-27T05:15:55.426Z,33.00
2022-07-27T05:18:29.845Z,33.00
2022-07-27T05:20:58.889Z,33.10
2022-07-27T05:23:26.901Z,33.10
2022-07-27T05:25:54.861Z,33.10
2022-07-27T05:28:23.070Z,33.20
2022-07-27T05:30:51.998Z,33.20
2022-07-27T05:33:20.214Z,33.20
2022-07-27T05:35:48.023Z,33.20
2022-07-27T05:38:17.424Z,33.10
2022-07-27T05:40:51.292Z,33.10
2022-07-27T05:43:20.682Z,33.00
2022-07-27T05:45:49.357Z,33.00
2022-07-27T05:48:17.278Z,33.00
2022-07-27T05:50:44.986Z,33.10
2022-07-27T05:53:14.941Z,33.10
2022-07-27T05:55:58.181Z,33.10
2022-07-27T05:58:29.566Z,33.20
2022-07-27T06:00:58.045Z,33.30
2022-07-27T06:03:30.035Z,33.30
2022-07-27T06:06:17.887Z,33.40
2022-07-27T06:08:49.066Z,33.50
2022-07-27T06:11:17.934Z,33.50
2022-07-27T06:13:48.315Z,33.50
2022-07-27T06:16:16.147Z,33.60
2022-07-27T06:18:47.155Z,33.60
2022-07-27T06:21:14.930Z,33.60
2022-07-27T06:23:42.774Z,33.60
2022-07-27T06:26:19.869Z,33.60
2022-07-27T06:28:50.947Z,33.60
2022-07-27T06:31:19.388Z,33.70
2022-07-27T06:33:48.287Z,33.60
2022-07-27T06:36:20.233Z,33.60
2022-07-27T06:38:48.581Z,33.60
2022-07-27T06:41:16.693Z,33.70
2022-07-27T06:43:45.584Z,33.70
2022-07-27T06:46:14.036Z,33.70
2022-07-27T06:48:42.440Z,33.80
2022-07-27T06:51:10.403Z,33.80
2022-07-27T06:53:38.532Z,33.90
2022-07-27T06:56:09.720Z,33.90
2022-07-27T06:58:39.182Z,33.90
2022-07-27T07:01:09.953Z,34.00
2022-07-27T07:03:37.861Z,34.00
2022-07-27T07:06:07.350Z,34.00
2022-07-27T07:08:39.161Z,34.00
2022-07-27T07:11:07.036Z,33.90
2022-07-27T07:13:38.512Z,33.80
2022-07-27T07:16:10.274Z,33.80
2022-07-27T07:18:38.087Z,33.70
2022-07-27T07:21:06.336Z,33.60
2022-07-27T07:23:34.157Z,33.50
2022-07-27T07:26:01.922Z,33.50
2022-07-27T07:28:29.681Z,33.40
2022-07-27T07:30:57.638Z,33.40
2022-07-27T07:33:25.613Z,33.30
2022-07-27T07:36:13.287Z,33.30
2022-07-27T07:38:41.333Z,33.30
2022-07-27T07:41:12.527Z,33.30
2022-07-27T07:43:42.591Z,33.20
2022-07-27T07:46:11.040Z,33.20
2022-07-27T07:48:39.940Z,33.10
2022-07-27T07:51:10.808Z,33.00
2022-07-27T07:53:41.682Z,33.00
2022-07-27T07:56:22.812Z,33.00
2022-07-27T07:58:51.528Z,33.00
2022-07-27T08:01:19.420Z,32.90
2022-07-27T08:03:56.500Z,32.90
2022-07-27T08:06:28.368Z,32.90
2022-07-27T08:08:56.132Z,33.00
2022-07-27T08:11:24.895Z,33.00
2022-07-27T08:13:52.973Z,33.00
2022-07-27T08:16:23.737Z,33.10
2022-07-27T08:18:54.147Z,33.20
2022-07-27T08:21:21.924Z,33.30
2022-07-27T08:23:49.799Z,33.50
2022-07-27T08:26:18.667Z,33.50
2022-07-27T08:28:47.916Z,33.70
2022-07-27T08:31:24.542Z,33.70
2022-07-27T08:34:04.105Z,33.70
2022-07-27T08:36:31.904Z,33.80
2022-07-27T08:39:02.615Z,33.80
2022-07-27T08:41:32.239Z,33.80
2022-07-27T08:44:04.919Z,33.80
2022-07-27T08:46:33.607Z,33.80
2022-07-27T08:49:02.678Z,33.80
2022-07-27T08:51:32.136Z,33.80
2022-07-27T08:54:04.546Z,33.80
2022-07-27T08:56:33.136Z,33.70
2022-07-27T08:59:04.699Z,33.70
2022-07-27T09:01:33.700Z,33.60
2022-07-27T09:04:01.697Z,33.50
2022-07-27T09:06:53.188Z,33.40
2022-07-27T09:09:22.963Z,33.40
2022-07-27T09:12:04.968Z,33.50
2022-07-27T09:14:57.123Z,33.50
2022-07-27T09:17:48.033Z,33.50
2022-07-27T09:20:18.814Z,33.60
2022-07-27T09:23:05.914Z,33.60
2022-07-27T09:26:02.279Z,33.60
2022-07-27T09:28:31.796Z,33.50
2022-07-27T09:31:06.225Z,33.50
2022-07-27T09:33:42.768Z,33.60
2022-07-27T09:36:10.669Z,33.60
2022-07-27T09:38:55.169Z,33.60
2022-07-27T09:41:28.885Z,33.60
2022-07-27T09:46:47.139Z,33.50
2022-07-27T09:49:33.176Z,33.50
2022-07-27T09:52:02.800Z,33.70
2022-07-27T09:54:50.234Z,33.30
2022-07-27T09:57:19.238Z,33.30
2022-07-27T09:59:47.452Z,33.20
2022-07-27T10:02:15.466Z,33.10
2022-07-27T10:04:45.569Z,33.00
2022-07-27T10:07:17.098Z,33.00
2022-07-27T10:09:47.314Z,33.00
2022-07-27T10:12:15.152Z,32.90
2022-07-27T10:14:43.591Z,32.90
2022-07-27T10:17:13.095Z,32.90
2022-07-27T10:19:48.420Z,32.90
2022-07-27T10:22:17.711Z,32.90
2022-07-27T10:24:48.731Z,32.90
2022-07-27T10:27:32.775Z,32.90
2022-07-27T10:30:00.660Z,32.80
2022-07-27T10:32:31.564Z,32.80
2022-07-27T10:35:00.137Z,32.80
2022-07-27T10:37:29.491Z,32.80
2022-07-27T10:40:11.725Z,32.70
2022-07-27T10:42:40.386Z,32.60
2022-07-27T10:45:15.363Z,32.60
2022-07-27T10:47:47.492Z,32.50
2022-07-27T10:50:23.345Z,32.40
2022-07-27T10:52:53.816Z,32.40
2022-07-27T10:55:43.956Z,32.30
2022-07-27T10:58:31.543Z,32.30
2022-07-27T11:01:00.539Z,32.20
2022-07-27T11:03:42.552Z,32.20
2022-07-27T11:06:32.623Z,32.20
2022-07-27T11:11:51.500Z,32.10
2022-07-27T11:14:30.311Z,32.00
2022-07-27T11:19:56.307Z,32.00
2022-07-27T11:25:24.621Z,31.90
2022-07-27T11:27:52.917Z,31.90
2022-07-27T11:30:24.708Z,31.80
2022-07-27T11:32:52.594Z,31.80
2022-07-27T11:35:20.610Z,31.80
2022-07-27T11:38:04.480Z,31.70
2022-07-27T11:43:34.463Z,31.70
2022-07-27T11:46:17.050Z,31.70
2022-07-27T11:49:08.046Z,31.60
2022-07-27T11:51:37.880Z,31.60
2022-07-27T11:54:07.337Z,31.50
2022-07-27T11:56:36.678Z,31.50
2022-07-27T11:59:16.381Z,31.50
2022-07-27T12:01:46.003Z,31.50
2022-07-27T12:04:16.620Z,31.40
2022-07-27T12:06:45.467Z,31.40
2022-07-27T12:09:15.980Z,31.40
2022-07-27T12:11:50.561Z,31.40
2022-07-27T12:14:19.709Z,31.40
2022-07-27T12:16:47.506Z,31.40
2022-07-27T12:19:26.575Z,31.30
2022-07-27T12:21:55.666Z,31.30
2022-07-27T12:24:32.862Z,31.30
2022-07-27T12:27:15.382Z,31.20
2022-07-27T12:29:55.350Z,31.20
2022-07-27T12:32:23.180Z,31.20
2022-07-27T12:34:50.928Z,31.20
2022-07-27T12:37:18.789Z,31.20
2022-07-27T12:39:47.163Z,31.20
2022-07-27T12:42:15.466Z,31.10
2022-07-27T12:44:45.564Z,31.10
2022-07-27T12:47:27.698Z,31.10
2022-07-27T12:50:09.366Z,31.00
2022-07-27T12:52:38.568Z,31.00
2022-07-27T12:55:07.193Z,31.00
2022-07-27T12:57:54.571Z,31.00
2022-07-27T13:00:29.205Z,30.90
2022-07-27T13:03:01.539Z,31.00
2022-07-27T13:05:29.690Z,30.90
2022-07-27T13:07:57.685Z,30.90
2022-07-27T13:10:25.608Z,30.90
2022-07-27T13:12:53.361Z,30.90
2022-07-27T13:15:21.128Z,30.90
2022-07-27T13:17:50.136Z,30.90
2022-07-27T13:20:23.819Z,30.90
2022-07-27T13:22:53.394Z,30.90
2022-07-27T13:25:21.765Z,30.90
2022-07-27T13:27:49.900Z,30.80
2022-07-27T13:30:18.379Z,30.80
2022-07-27T13:32:49.964Z,30.90
2022-07-27T13:35:21.073Z,30.80
2022-07-27T13:37:48.846Z,30.80
2022-07-27T13:40:16.685Z,30.80
2022-07-27T13:42:44.567Z,30.80
2022-07-27T13:45:12.721Z,30.80
2022-07-27T13:47:41.037Z,30.70
2022-07-27T13:50:13.666Z,30.80
2022-07-27T13:52:46.035Z,30.70
2022-07-27T13:55:15.768Z,30.70
2022-07-27T13:57:43.573Z,30.70
2022-07-27T14:00:12.510Z,30.70
2022-07-27T14:02:41.874Z,30.70
2022-07-27T14:05:13.051Z,30.70
2022-07-27T14:07:42.292Z,30.60
2022-07-27T14:10:22.349Z,30.60
2022-07-27T14:12:53.188Z,30.60
2022-07-27T14:15:25.772Z,30.50
2022-07-27T14:17:53.751Z,30.50
2022-07-27T14:20:21.550Z,30.50
2022-07-27T14:22:49.313Z,30.50
2022-07-27T14:25:17.323Z,30.50
2022-07-27T14:27:46.229Z,30.40
2022-07-27T14:30:18.716Z,30.40
2022-07-27T14:32:48.966Z,30.40
2022-07-27T14:35:18.432Z,30.40
2022-07-27T14:37:46.255Z,30.30
2022-07-27T14:40:14.759Z,30.30
2022-07-27T14:42:43.000Z,30.30
2022-07-27T14:45:10.960Z,30.20
2022-07-27T14:47:38.923Z,30.20
2022-07-27T14:50:08.440Z,30.10
2022-07-27T14:52:37.442Z,30.10
2022-07-27T14:55:05.937Z,30.10
2022-07-27T14:57:33.971Z,30.10
2022-07-27T15:00:01.869Z,30.10
2022-07-27T15:02:29.681Z,30.00
2022-07-27T15:04:57.912Z,30.00
2022-07-27T15:07:25.624Z,30.00
2022-07-27T15:09:53.594Z,30.00
2022-07-27T15:12:21.687Z,30.00
2022-07-27T15:14:50.241Z,30.00
2022-07-27T15:17:17.985Z,30.00
2022-07-27T15:19:46.812Z,30.00
2022-07-27T15:22:15.414Z,29.90
2022-07-27T15:24:46.807Z,29.90
2022-07-27T15:27:14.528Z,29.90
2022-07-27T15:29:43.123Z,29.90
2022-07-27T15:32:11.035Z,29.90
2022-07-27T15:34:39.093Z,29.80
2022-07-27T15:37:07.915Z,29.80
2022-07-27T15:39:39.849Z,29.80
2022-07-27T15:42:08.749Z,29.80
2022-07-27T15:44:36.797Z,29.80
2022-07-27T15:47:04.767Z,29.80
2022-07-27T15:49:32.744Z,29.80
2022-07-27T15:52:01.673Z,29.80
2022-07-27T15:54:33.405Z,29.80
2022-07-27T15:57:03.107Z,29.80
2022-07-27T15:59:31.393Z,29.80
2022-07-27T16:01:59.148Z,29.80
2022-07-27T16:04:28.437Z,29.80
2022-07-27T16:06:56.189Z,29.80
2022-07-27T16:09:23.916Z,29.70
2022-07-27T16:11:51.634Z,29.70
2022-07-27T16:14:19.342Z,29.70
2022-07-27T16:16:47.412Z,29.60
2022-07-27T16:19:16.217Z,29.70
2022-07-27T16:21:55.005Z,29.70
2022-07-27T16:24:24.895Z,29.60
2022-07-27T16:26:52.826Z,29.70
2022-07-27T16:29:20.589Z,29.60
2022-07-27T16:31:49.381Z,29.60
2022-07-27T16:34:18.654Z,29.60
2022-07-27T16:36:47.489Z,29.60
2022-07-27T16:39:16.508Z,29.60
2022-07-27T16:41:44.572Z,29.60
2022-07-27T16:44:12.291Z,29.60
2022-07-27T16:46:40.648Z,29.60
2022-07-27T16:49:09.763Z,29.50
2022-07-27T16:51:37.677Z,29.50
2022-07-27T16:54:05.902Z,29.50
2022-07-27T16:56:34.495Z,29.60
2022-07-27T16:59:02.275Z,29.50
2022-07-27T17:01:30.688Z,29.50
2022-07-27T17:03:59.060Z,29.50
2022-07-27T17:06:27.492Z,29.50
2022-07-27T17:08:55.647Z,29.50
2022-07-27T17:11:23.759Z,29.40
2022-07-27T17:13:59.418Z,29.40
2022-07-27T17:16:28.063Z,29.40
2022-07-27T17:18:56.008Z,29.40
2022-07-27T17:21:23.839Z,29.40
2022-07-27T17:23:51.536Z,29.30
2022-07-27T17:26:20.079Z,29.30
2022-07-27T17:28:51.423Z,29.30
2022-07-27T17:31:22.391Z,29.20
2022-07-27T17:33:50.322Z,29.30
2022-07-27T17:36:19.007Z,29.30
2022-07-27T17:38:47.531Z,29.20
2022-07-27T17:41:21.704Z,29.20
2022-07-27T17:43:53.401Z,29.30
2022-07-27T17:46:22.275Z,29.20
2022-07-27T17:48:50.171Z,29.20
2022-07-27T17:51:19.161Z,29.20
2022-07-27T17:53:47.256Z,29.20
2022-07-27T17:56:17.018Z,29.20
2022-07-27T17:58:46.942Z,29.10
2022-07-27T18:01:15.056Z,29.20
2022-07-27T18:03:43.397Z,29.10
2022-07-27T18:06:12.284Z,29.10
2022-07-27T18:08:40.008Z,29.10
2022-07-27T18:11:08.581Z,29.00
2022-07-27T18:13:37.779Z,29.00
2022-07-27T18:16:09.458Z,29.00
2022-07-27T18:18:37.610Z,28.90
2022-07-27T18:21:05.583Z,28.80
2022-07-27T18:23:33.353Z,28.80
2022-07-27T18:26:01.489Z,28.80
2022-07-27T18:28:29.620Z,28.70
2022-07-27T18:30:57.645Z,28.70
2022-07-27T18:33:36.444Z,28.60
2022-07-27T18:36:05.715Z,28.60
2022-07-27T18:38:33.722Z,28.60
2022-07-27T18:41:01.437Z,28.60
2022-07-27T18:43:29.208Z,28.60
2022-07-27T18:45:58.076Z,28.60
2022-07-27T18:48:26.586Z,28.60
2022-07-27T18:50:55.396Z,28.60
2022-07-27T18:53:23.227Z,28.70
2022-07-27T18:55:56.033Z,28.70
2022-07-27T18:58:24.476Z,28.70
2022-07-27T19:00:54.794Z,28.70
2022-07-27T19:03:22.765Z,28.70
2022-07-27T19:05:52.902Z,28.60
2022-07-27T19:08:21.183Z,28.50
2022-07-27T19:10:48.921Z,28.50
2022-07-27T19:13:16.633Z,28.50
2022-07-27T19:15:45.274Z,28.40
2022-07-27T19:18:13.446Z,28.40
2022-07-27T19:20:42.211Z,28.90
2022-07-27T19:23:10.205Z,28.40
2022-07-27T19:25:37.914Z,28.40
2022-07-27T19:28:06.070Z,28.40
2022-07-27T19:30:33.952Z,28.30
2022-07-27T19:33:01.766Z,28.30
2022-07-27T19:35:30.287Z,28.30
2022-07-27T19:37:58.903Z,28.30
2022-07-27T19:40:43.964Z,28.30
2022-07-27T19:43:12.774Z,28.30
2022-07-27T19:45:41.675Z,28.30
2022-07-27T19:48:09.582Z,28.30
2022-07-27T19:50:37.444Z,28.30
2022-07-27T19:53:05.483Z,28.30
2022-07-27T19:55:34.440Z,28.20
2022-07-27T19:58:03.058Z,28.20
2022-07-27T20:00:31.602Z,28.10
2022-07-27T20:02:59.467Z,28.10
2022-07-27T20:05:27.284Z,28.10
2022-07-27T20:07:55.031Z,28.10
2022-07-27T20:10:22.860Z,28.10
2022-07-27T20:12:53.117Z,28.00
2022-07-27T20:15:22.356Z,28.10
2022-07-27T20:17:51.559Z,28.10
2022-07-27T20:20:20.185Z,28.10
2022-07-27T20:22:49.427Z,28.10
2022-07-27T20:25:18.865Z,28.00
2022-07-27T20:27:47.178Z,28.10
2022-07-27T20:30:17.411Z,28.00
2022-07-27T20:32:46.630Z,28.10
2022-07-27T20:35:14.465Z,28.00
2022-07-27T20:37:42.682Z,28.00
2022-07-27T20:40:12.073Z,28.00
2022-07-27T20:42:41.029Z,28.00
2022-07-27T20:45:11.555Z,28.00
2022-07-27T20:47:40.320Z,28.00
2022-07-27T20:50:09.348Z,28.00
2022-07-27T20:52:37.751Z,28.00
2022-07-27T20:55:09.227Z,27.90
2022-07-27T20:57:37.798Z,27.90
2022-07-27T21:00:07.006Z,27.80
2022-07-27T21:02:34.825Z,27.80
2022-07-27T21:05:03.177Z,27.80
2022-07-27T21:07:31.293Z,27.70
2022-07-27T21:09:59.067Z,27.70
2022-07-27T21:12:26.837Z,27.70
2022-07-27T21:14:54.744Z,27.60
2022-07-27T21:17:24.527Z,27.70
2022-07-27T21:19:53.699Z,27.70
2022-07-27T21:22:21.764Z,27.70
2022-07-27T21:24:49.939Z,27.70
2022-07-27T21:27:18.708Z,27.70
2022-07-27T21:29:49.654Z,27.70
2022-07-27T21:32:18.023Z,27.70
2022-07-27T21:34:47.065Z,26.50
2022-07-27T21:37:14.867Z,27.70
2022-07-27T21:39:42.722Z,27.70
2022-07-27T21:42:10.424Z,27.70
2022-07-27T21:44:38.597Z,27.70
2022-07-27T21:47:13.124Z,27.70
2022-07-27T21:49:42.475Z,28.20
2022-07-27T21:52:11.583Z,27.60
2022-07-27T21:54:39.396Z,27.60
2022-07-27T21:57:07.121Z,27.60
2022-07-27T21:59:35.954Z,27.60
2022-07-27T22:02:03.649Z,27.60
2022-07-27T22:04:31.433Z,27.60
2022-07-27T22:07:00.185Z,27.60
2022-07-27T22:09:28.242Z,27.50
2022-07-27T22:11:56.243Z,27.50
2022-07-27T22:14:24.516Z,27.50
2022-07-27T22:16:53.396Z,27.50
2022-07-27T22:19:21.111Z,27.50
2022-07-27T22:21:48.870Z,27.50
2022-07-27T22:24:17.648Z,27.50
2022-07-27T22:26:45.543Z,27.40
2022-07-27T22:29:13.493Z,27.40
2022-07-27T22:31:42.201Z,27.50
2022-07-27T22:34:10.161Z,27.40
2022-07-27T22:36:38.928Z,27.40
2022-07-27T22:39:06.923Z,27.50
2022-07-27T22:41:34.760Z,27.40
2022-07-27T22:44:03.566Z,27.40
2022-07-27T22:46:31.426Z,27.40
2022-07-27T22:48:59.576Z,27.40
2022-07-27T22:51:50.405Z,27.40
2022-07-27T22:54:15.418Z,27.40
2022-07-27T22:56:43.579Z,27.30
2022-07-27T22:59:12.081Z,27.40
2022-07-27T23:01:46.217Z,27.40
2022-07-27T23:04:16.493Z,27.40
2022-07-27T23:06:44.814Z,27.40
2022-07-27T23:09:12.685Z,27.40
2022-07-27T23:11:40.725Z,27.40
2022-07-27T23:14:08.508Z,27.40
2022-07-27T23:16:39.378Z,27.40
2022-07-27T23:19:08.023Z,27.40
2022-07-27T23:21:35.791Z,27.50
2022-07-27T23:24:05.192Z,27.50
2022-07-27T23:26:34.658Z,27.50
2022-07-27T23:29:02.498Z,27.50
2022-07-27T23:31:31.208Z,27.60
2022-07-27T23:33:59.075Z,27.60
2022-07-27T23:36:26.999Z,27.70
2022-07-27T23:38:55.739Z,27.70
2022-07-27T23:41:24.354Z,27.80
2022-07-27T23:43:52.191Z,27.90
2022-07-27T23:46:20.149Z,27.90
2022-07-27T23:48:48.234Z,28.00
2022-07-27T23:51:20.607Z,28.20
2022-07-27T23:53:48.345Z,28.10
2022-07-27T23:56:17.420Z,28.10
2022-07-27T23:58:46.547Z,28.20
